Time;durP1;ratioP1;P1;durP2;ratioP2;P2;SDS_P1;SDS_P2;PMS_P1;PMS_P2;Temp;Humidity;BMP_temperature;BMP_pressure;BME280_temperature;BME280_humidity;BME280_pressure;Samples;Min_cycle;Max_cycle;Signal;HPM_P1;HPM_P2
2023/02/11 00:00:04;;;;;;;23.20;9.85;;;;;;;14.38;43.34;103269.16;5033341;28;20048;-64
2023/02/11 00:02:31;;;;;;;24.33;10.55;;;;;;;14.36;42.70;103268.38;5032788;28;20037;-63
2023/02/11 00:04:57;;;;;;;21.85;10.60;;;;;;;14.33;43.06;103282.06;5032915;28;20057;-63
2023/02/11 00:07:22;;;;;;;21.77;9.93;;;;;;;14.31;42.12;103267.78;5033076;28;20486;-63
2023/02/11 00:09:47;;;;;;;20.63;10.15;;;;;;;14.31;43.58;103273.16;5033242;28;20033;-64
2023/02/11 00:12:14;;;;;;;20.70;9.25;;;;;;;14.32;42.70;103274.06;5036352;28;20029;-64
2023/02/11 00:14:39;;;;;;;24.42;9.95;;;;;;;14.31;42.18;103273.16;5035690;28;20530;-63
2023/02/11 00:17:05;;;;;;;28.48;9.80;;;;;;;14.29;43.31;103264.28;5035520;28;20120;-63
2023/02/11 00:19:30;;;;;;;15.63;8.95;;;;;;;14.28;42.33;103276.03;5036987;28;20035;-62
2023/02/11 00:21:56;;;;;;;23.75;10.73;;;;;;;14.26;43.58;103269.88;5036923;28;20095;-63
2023/02/11 00:24:21;;;;;;;24.95;10.05;;;;;;;14.26;43.88;103282.50;5037159;28;20036;-62
2023/02/11 00:26:46;;;;;;;26.52;10.20;;;;;;;14.27;43.94;103277.00;5036456;28;20120;-63
2023/02/11 00:29:12;;;;;;;27.92;10.80;;;;;;;14.25;43.74;103273.53;5036541;28;20417;-64
2023/02/11 00:31:37;;;;;;;20.05;11.52;;;;;;;14.23;42.70;103267.38;5036458;28;20033;-64
2023/02/11 00:34:02;;;;;;;25.42;10.38;;;;;;;14.23;42.28;103275.47;5037130;28;20049;-65
2023/02/11 00:36:28;;;;;;;22.40;9.55;;;;;;;14.21;43.05;103281.91;5037049;28;20381;-64
2023/02/11 00:38:54;;;;;;;25.48;11.07;;;;;;;14.20;42.53;103291.81;5036397;28;20030;-63
2023/02/11 00:41:20;;;;;;;25.33;10.93;;;;;;;14.17;42.21;103283.91;5035324;28;20033;-65
2023/02/11 00:43:46;;;;;;;25.98;10.10;;;;;;;14.17;43.51;103274.97;5036328;28;20061;-62
2023/02/11 00:46:12;;;;;;;26.85;10.57;;;;;;;14.17;43.40;103274.97;5036275;28;20032;-63
2023/02/11 00:48:38;;;;;;;23.40;10.63;;;;;;;14.15;42.65;103266.09;5036090;28;20502;-63
2023/02/11 00:51:04;;;;;;;22.08;8.82;;;;;;;14.13;43.51;103263.47;5036482;28;20029;-63
2023/02/11 00:53:30;;;;;;;26.85;9.95;;;;;;;14.11;43.84;103270.81;5035011;28;20042;-62
2023/02/11 00:55:55;;;;;;;22.30;10.55;;;;;;;14.13;43.45;103262.59;5036082;28;20127;-63
2023/02/11 00:58:21;;;;;;;20.30;9.38;;;;;;;14.11;42.66;103265.41;5036331;28;20120;-63
2023/02/11 01:00:46;;;;;;;17.92;8.85;;;;;;;14.13;42.33;103265.31;5035160;28;20048;-64
2023/02/11 01:03:12;;;;;;;24.42;10.70;;;;;;;14.14;43.46;103258.97;5035456;28;20033;-63
2023/02/11 01:05:37;;;;;;;23.10;9.40;;;;;;;14.13;42.76;103252.69;5035898;28;20405;-63
2023/02/11 01:08:03;;;;;;;29.85;12.43;;;;;;;14.16;42.73;103243.56;5036068;28;20164;-63
2023/02/11 01:10:28;;;;;;;22.02;9.65;;;;;;;14.16;43.19;103252.53;5036067;28;20528;-65
2023/02/11 01:12:53;;;;;;;21.10;9.60;;;;;;;14.17;43.30;103258.78;5035945;28;20033;-63
2023/02/11 01:15:19;;;;;;;19.67;9.38;;;;;;;14.14;42.81;103249.06;5036089;28;20477;-64
2023/02/11 01:17:45;;;;;;;22.30;9.23;;;;;;;14.12;43.07;103250.97;5035687;28;20041;-65
2023/02/11 01:20:19;;;;;;;18.60;8.25;;;;;;;14.10;42.83;103258.28;5035845;28;20569;-63
2023/02/11 01:22:45;;;;;;;23.05;9.15;;;;;;;14.09;42.85;103261.94;5034828;28;20037;-63
2023/02/11 01:25:11;;;;;;;19.55;9.00;;;;;;;14.10;43.41;103269.06;5035403;28;20041;-65
2023/02/11 01:27:36;;;;;;;19.13;8.13;;;;;;;14.10;43.56;103273.59;5035405;28;20126;-63
2023/02/11 01:30:05;;;;;;;22.05;8.93;;;;;;;14.10;42.73;103268.22;5035849;28;20033;-63
2023/02/11 01:32:30;;;;;;;17.15;8.25;;;;;;;14.09;42.93;103270.03;5035348;28;20034;-63
2023/02/11 01:34:56;;;;;;;19.48;8.13;;;;;;;14.08;44.42;103279.06;5035598;28;20056;-63
2023/02/11 01:37:21;;;;;;;16.67;8.25;;;;;;;14.09;42.90;103278.13;5035457;28;20496;-63
2023/02/11 01:39:46;;;;;;;17.35;8.05;;;;;;;14.10;43.98;103279.00;5035292;28;20033;-64
2023/02/11 01:42:18;;;;;;;15.82;7.80;;;;;;;14.09;44.14;103278.13;5034327;28;20025;-63
2023/02/11 01:44:43;;;;;;;16.20;8.07;;;;;;;14.10;42.95;103279.84;5036114;28;20516;-64
2023/02/11 01:47:09;;;;;;;14.60;7.40;;;;;;;14.09;42.91;103267.34;5033924;28;20041;-64
2023/02/11 01:49:41;;;;;;;23.88;8.68;;;;;;;14.09;44.25;103264.66;5035253;28;20030;-63
2023/02/11 01:52:30;;;;;;;15.90;7.07;;;;;;;14.10;43.02;103263.66;5035102;28;20069;-63
2023/02/11 01:57:45;;;;;;;19.05;9.15;;;;;;;14.09;42.98;103279.94;5034979;28;20071;-63
2023/02/11 02:00:30;;;;;;;16.40;9.02;;;;;;;14.07;43.37;103277.31;5034152;28;20540;-64
2023/02/11 02:03:07;;;;;;;17.58;7.97;;;;;;;14.04;44.06;103269.44;5035058;28;20492;-63
2023/02/11 02:05:58;;;;;;;20.20;8.35;;;;;;;14.06;44.47;103277.44;5034735;28;20044;-63
2023/02/11 02:08:31;;;;;;;18.60;7.97;;;;;;;14.05;42.88;103276.56;5033555;28;20501;-64
2023/02/11 02:10:59;;;;;;;;;;;;;;;14.03;43.14;103273.09;5034104;28;20042;-63
2023/02/11 02:13:26;;;;;;;19.95;7.75;;;;;;;14.00;42.89;103257.09;5033430;28;19956;-64
2023/02/11 02:15:57;;;;;;;15.93;7.90;;;;;;;13.98;43.01;103259.91;5033540;28;20512;-63
2023/02/11 02:18:38;;;;;;;16.95;8.52;;;;;;;13.97;43.23;103251.91;5052219;28;20120;-64
2023/02/11 02:21:25;;;;;;;15.65;6.85;;;;;;;13.93;43.96;103248.50;5053694;28;20063;-63
2023/02/11 02:24:12;;;;;;;21.00;7.60;;;;;;;13.90;43.18;103248.69;5054408;28;20120;-63
2023/02/11 02:27:13;;;;;;;14.60;7.65;;;;;;;13.89;43.31;103254.19;5054497;28;20117;-63
2023/02/11 02:29:44;;;;;;;18.00;7.22;;;;;;;13.86;44.21;103248.97;5053000;28;20061;-63
2023/02/11 02:32:23;;;;;;;20.58;8.30;;;;;;;13.87;43.85;103250.72;5054159;28;20033;-63
2023/02/11 02:35:11;;;;;;;19.13;7.78;;;;;;;13.85;43.23;103241.84;5052819;28;20191;-63
2023/02/11 02:37:58;;;;;;;29.60;8.90;;;;;;;13.84;43.16;103240.13;5045938;28;20033;-65
2023/02/11 02:40:30;;;;;;;14.77;7.53;;;;;;;13.82;44.67;103247.41;5053927;28;20029;-63
2023/02/11 02:42:56;;;;;;;20.80;8.68;;;;;;;13.80;43.59;103244.81;5052667;28;20507;-64
2023/02/11 02:45:21;;;;;;;15.80;7.68;;;;;;;13.81;43.84;103251.06;5053444;28;20036;-62
2023/02/11 02:47:46;;;;;;;21.60;8.88;;;;;;;13.84;43.20;103251.78;5054039;28;20036;-63
2023/02/11 02:50:15;;;;;;;24.25;8.55;;;;;;;13.85;43.88;103241.84;5053846;28;20117;-63
2023/02/11 02:53:06;;;;;;;19.17;8.77;;;;;;;13.87;44.70;103239.94;5053577;28;20037;-63
2023/02/11 02:55:32;;;;;;;22.92;7.80;;;;;;;13.88;43.77;103247.03;5053669;28;20033;-66
2023/02/11 02:58:09;;;;;;;12.55;7.78;;;;;;;13.87;44.52;103239.94;5053936;28;20036;-64
2023/02/11 03:00:56;;;;;;;18.25;7.13;;;;;;;13.88;43.46;103241.66;5053610;28;20028;-63
2023/02/11 03:03:33;;;;;;;15.02;7.63;;;;;;;13.88;43.54;103241.66;5053898;28;20025;-62
2023/02/11 03:06:07;;;;;;;19.10;8.27;;;;;;;13.85;43.72;103233.75;5053821;28;20060;-63
2023/02/11 03:08:56;;;;;;;25.63;8.23;;;;;;;13.86;44.82;103233.69;5052376;28;20056;-63
2023/02/11 03:11:22;;;;;;;19.50;8.00;;;;;;;13.88;44.62;103230.88;5035917;28;20060;-64
2023/02/11 03:13:49;;;;;;;22.08;7.57;;;;;;;13.89;44.36;103232.63;5053427;28;20448;-63
2023/02/11 03:16:18;;;;;;;16.30;6.85;;;;;;;13.88;44.19;103226.38;5052398;28;20091;-64
2023/02/11 03:18:49;;;;;;;17.20;6.85;;;;;;;13.93;44.21;103228.81;5052160;28;20032;-63
2023/02/11 03:21:15;;;;;;;21.38;6.57;;;;;;;13.94;44.24;103225.13;5053775;28;20060;-64
2023/02/11 03:23:49;;;;;;;16.65;6.63;;;;;;;13.96;44.15;103221.38;5053415;28;20067;-65
2023/02/11 03:26:15;;;;;;;15.25;6.57;;;;;;;13.98;44.33;103221.31;5052213;28;20033;-63
2023/02/11 03:28:47;;;;;;;15.85;6.22;;;;;;;13.99;44.52;103206.84;5053279;28;20041;-63
2023/02/11 03:31:17;;;;;;;20.07;6.53;;;;;;;13.99;44.39;103212.25;5053145;28;20090;-63
2023/02/11 03:33:49;;;;;;;17.85;6.32;;;;;;;13.99;44.16;103217.63;5052149;28;20059;-63
2023/02/11 03:36:20;;;;;;;15.40;6.00;;;;;;;13.99;44.38;103204.16;5053819;28;20028;-63
2023/02/11 03:38:51;;;;;;;16.83;6.72;;;;;;;13.98;43.92;103210.53;5035297;28;20082;-63
2023/02/11 03:41:19;;;;;;;15.35;6.13;;;;;;;13.99;44.29;103206.84;5051827;28;20037;-63
2023/02/11 03:43:48;;;;;;;15.98;6.65;;;;;;;13.98;45.02;103195.22;5051951;28;20032;-62
2023/02/11 03:46:16;;;;;;;13.73;6.07;;;;;;;14.01;45.23;103205.78;5051352;28;20108;-63
2023/02/11 03:48:48;;;;;;;18.92;7.47;;;;;;;14.03;45.37;103208.41;5052956;28;20033;-63
2023/02/11 03:51:14;;;;;;;22.70;7.80;;;;;;;14.02;44.15;103206.66;5053205;28;20540;-64
2023/02/11 03:53:42;;;;;;;14.35;7.10;;;;;;;14.03;43.82;103208.41;5051775;28;20044;-63
2023/02/11 03:56:12;;;;;;;16.20;7.03;;;;;;;14.04;45.41;103215.56;5051692;28;20041;-63
2023/02/11 03:58:37;;;;;;;18.13;7.88;;;;;;;14.04;44.06;103222.75;5051589;28;20036;-64
2023/02/11 04:01:07;;;;;;;22.38;7.68;;;;;;;14.02;44.88;103218.31;5053006;28;20361;-65
2023/02/11 04:03:33;;;;;;;12.27;7.22;;;;;;;14.01;45.07;103229.22;5053498;28;20147;-63
2023/02/11 04:05:58;;;;;;;13.38;6.95;;;;;;;14.00;45.09;103222.06;5053026;28;20045;-65
2023/02/11 04:08:23;;;;;;;13.93;5.80;;;;;;;13.99;45.19;103218.50;5052801;28;20029;-62
2023/02/11 04:10:49;;;;;;;14.27;6.60;;;;;;;14.00;45.16;103216.69;5052771;28;20033;-65
2023/02/11 04:13:14;;;;;;;16.70;6.97;;;;;;;14.01;44.30;103215.72;5052578;28;20512;-64
2023/02/11 04:15:39;;;;;;;17.10;7.03;;;;;;;14.02;44.51;103214.75;5053458;28;20025;-62
2023/02/11 04:18:05;;;;;;;16.30;6.18;;;;;;;14.02;45.33;103212.94;5054393;28;20095;-64
2023/02/11 04:20:30;;;;;;;14.73;5.70;;;;;;;14.02;44.21;103210.22;5053024;28;20040;-64
2023/02/11 04:22:56;;;;;;;16.58;5.65;;;;;;;14.03;45.63;103211.09;5052924;28;20041;-64
2023/02/11 04:25:21;;;;;;;14.52;6.95;;;;;;;14.01;44.31;103200.41;5052719;28;20033;-62
2023/02/11 04:27:47;;;;;;;19.60;7.05;;;;;;;14.00;43.98;103198.69;5052544;28;20051;-63
2023/02/11 04:30:12;;;;;;;20.73;6.93;;;;;;;14.02;44.18;103206.66;5053177;28;20558;-62
2023/02/11 04:32:38;;;;;;;13.88;6.28;;;;;;;14.02;44.95;103202.16;5052753;28;20037;-63
2023/02/11 04:35:04;;;;;;;14.75;6.43;;;;;;;14.02;45.10;103203.97;5052648;28;20033;-63
2023/02/11 04:37:29;;;;;;;14.63;6.32;;;;;;;14.03;44.47;103203.03;5052653;28;20075;-64
2023/02/11 04:39:55;;;;;;;13.38;6.30;;;;;;;14.02;44.27;103201.28;5052583;28;20108;-63
2023/02/11 04:42:20;;;;;;;20.75;6.90;;;;;;;14.05;45.58;103202.91;5051418;28;20575;-63
2023/02/11 04:44:45;;;;;;;17.08;5.70;;;;;;;14.01;44.25;103204.94;5052432;28;20055;-63
2023/02/11 04:47:12;;;;;;;23.52;5.88;;;;;;;13.98;45.70;103202.44;5052373;28;20033;-63
2023/02/11 04:49:37;;;;;;;16.15;6.25;;;;;;;13.96;45.61;103201.66;5052556;28;20098;-63
2023/02/11 04:52:03;;;;;;;14.52;6.45;;;;;;;13.96;44.84;103198.94;5052395;28;20485;-64
2023/02/11 04:54:28;;;;;;;18.77;6.75;;;;;;;13.95;45.50;103191.84;5052941;28;20057;-63
2023/02/11 04:56:54;;;;;;;16.80;5.90;;;;;;;13.95;44.33;103205.31;5051634;28;20512;-63
2023/02/11 04:59:19;;;;;;;13.13;5.85;;;;;;;13.96;45.34;103202.50;5054718;28;20063;-64
2023/02/11 05:01:44;;;;;;;11.27;6.40;;;;;;;13.98;46.03;103205.13;5056067;28;20029;-63
2023/02/11 05:04:10;;;;;;;14.93;6.38;;;;;;;13.99;44.99;103198.75;5056156;28;20485;-63
2023/02/11 05:06:38;;;;;;;18.98;6.20;;;;;;;13.99;45.49;103196.94;5055832;28;20033;-62
2023/02/11 05:09:03;;;;;;;22.90;6.13;;;;;;;13.97;45.66;103204.25;5056747;28;20032;-64
2023/02/11 05:11:29;;;;;;;16.27;6.00;;;;;;;13.95;45.87;103200.81;5055913;28;20029;-63
2023/02/11 05:13:54;;;;;;;17.45;5.93;;;;;;;13.95;44.91;103191.84;5054359;28;20037;-63
2023/02/11 05:16:19;;;;;;;16.27;7.43;;;;;;;13.97;45.36;103187.22;5056056;28;20040;-65
2023/02/11 05:18:45;;;;;;;13.75;6.45;;;;;;;13.95;45.84;103189.16;5056000;28;20504;-63
2023/02/11 05:21:15;;;;;;;12.48;6.03;;;;;;;13.95;45.78;103194.53;5055982;28;20482;-62
2023/02/11 05:23:41;;;;;;;16.55;6.47;;;;;;;13.95;44.75;103190.03;5055735;28;20045;-64
2023/02/11 05:26:07;;;;;;;17.15;7.05;;;;;;;13.95;45.54;103183.75;5055865;28;20037;-64
2023/02/11 05:28:34;;;;;;;15.38;6.45;;;;;;;13.94;45.63;103176.63;5055468;28;20048;-63
2023/02/11 05:30:59;;;;;;;21.88;7.43;;;;;;;13.93;45.56;103185.69;5055605;28;20029;-65
2023/02/11 05:33:24;;;;;;;16.63;7.10;;;;;;;13.93;45.97;103181.16;5056013;28;20392;-63
2023/02/11 05:35:50;;;;;;;23.02;6.05;;;;;;;13.92;45.04;103189.34;5054138;28;20033;-62
2023/02/11 05:38:15;;;;;;;16.55;6.90;;;;;;;13.94;45.31;103192.78;5055549;28;20041;-63
2023/02/11 05:40:41;;;;;;;16.30;7.03;;;;;;;13.96;45.30;103194.44;5055241;28;20029;-65
2023/02/11 05:43:06;;;;;;;20.50;5.97;;;;;;;13.99;44.74;103193.38;5055378;28;20131;-64
2023/02/11 05:45:32;;;;;;;16.10;6.63;;;;;;;13.99;46.35;103194.25;5055810;28;20029;-64
2023/02/11 05:47:57;;;;;;;22.35;7.07;;;;;;;13.98;46.01;103192.53;5055240;28;20128;-64
2023/02/11 05:50:23;;;;;;;12.90;6.20;;;;;;;13.98;46.11;103178.19;5055034;28;20101;-63
2023/02/11 05:52:49;;;;;;;15.13;6.53;;;;;;;14.02;45.63;103174.31;5055046;28;20537;-64
2023/02/11 05:55:14;;;;;;;19.45;7.43;;;;;;;14.03;44.92;103186.84;5055276;28;20029;-63
2023/02/11 05:57:39;;;;;;;17.48;6.43;;;;;;;14.06;45.55;103185.78;5055095;28;20032;-64
2023/02/11 06:00:05;;;;;;;12.02;6.15;;;;;;;14.03;45.87;103181.47;5055438;28;20051;-63
2023/02/11 06:02:31;;;;;;;15.93;6.10;;;;;;;14.04;45.41;103194.00;5055061;28;20106;-63
2023/02/11 06:04:56;;;;;;;22.67;6.47;;;;;;;14.05;45.90;103197.53;5053784;28;20136;-63
2023/02/11 06:07:22;;;;;;;25.13;7.13;;;;;;;14.06;44.95;103202.84;5054811;28;20063;-63
2023/02/11 06:09:47;;;;;;;19.38;7.78;;;;;;;14.06;46.26;103194.75;5054403;28;20382;-64
2023/02/11 06:12:12;;;;;;;22.30;7.90;;;;;;;14.05;45.64;103209.19;5055416;28;20036;-65
2023/02/11 06:14:38;;;;;;;25.27;8.25;;;;;;;14.02;45.06;103203.97;5054788;28;20492;-63
2023/02/11 06:17:03;;;;;;;18.92;8.75;;;;;;;14.03;45.90;103194.94;5054373;28;20041;-63
2023/02/11 06:19:29;;;;;;;21.58;9.10;;;;;;;14.05;45.34;103198.41;5053507;28;20120;-63
2023/02/11 06:21:55;;;;;;;23.75;11.43;;;;;;;14.08;45.18;103200.91;5054367;28;20158;-63
2023/02/11 06:24:21;;;;;;;25.55;8.43;;;;;;;14.10;45.12;103204.38;5054776;28;20059;-63
2023/02/11 06:26:46;;;;;;;23.75;9.02;;;;;;;14.12;45.02;103197.09;5054421;28;20033;-62
2023/02/11 06:29:12;;;;;;;25.00;8.43;;;;;;;14.14;45.09;103197.84;5054454;28;20094;-63
2023/02/11 06:31:38;;;;;;;20.83;6.88;;;;;;;14.14;46.49;103200.53;5054317;28;20492;-62
2023/02/11 06:34:03;;;;;;;20.05;7.20;;;;;;;14.14;45.40;103195.16;5054505;28;20035;-65
2023/02/11 06:36:29;;;;;;;21.33;7.50;;;;;;;14.14;45.98;103187.06;5054539;28;20500;-63
2023/02/11 06:38:54;;;;;;;15.90;8.40;;;;;;;14.14;46.68;103189.75;5054035;28;20040;-64
2023/02/11 06:41:20;;;;;;;19.92;7.18;;;;;;;14.15;45.34;103191.50;5054192;28;20107;-64
2023/02/11 06:43:46;;;;;;;19.20;6.57;;;;;;;14.16;45.42;103182.44;5054364;28;20033;-64
2023/02/11 06:46:11;;;;;;;23.02;7.55;;;;;;;14.19;46.22;103190.34;5053272;28;20063;-63
2023/02/11 06:48:37;;;;;;;13.45;6.75;;;;;;;14.18;45.79;103180.50;5054065;28;20025;-64
2023/02/11 06:51:04;;;;;;;17.15;7.35;;;;;;;14.18;46.30;103185.91;5054226;28;20381;-64
2023/02/11 06:53:31;;;;;;;24.52;8.07;;;;;;;14.19;46.14;103184.94;5052547;28;20040;-63
2023/02/11 06:56:02;;;;;;;28.13;7.40;;;;;;;14.19;46.44;103182.25;5052554;28;20511;-63
2023/02/11 06:58:27;;;;;;;23.08;7.93;;;;;;;14.18;45.64;103183.19;5052581;28;20037;-62
2023/02/11 07:00:52;;;;;;;27.45;8.45;;;;;;;14.21;45.21;103184.88;5053747;28;20043;-62
2023/02/11 07:03:18;;;;;;;19.40;7.45;;;;;;;14.21;45.55;103176.78;5054153;28;20465;-62
2023/02/11 07:05:43;;;;;;;23.00;8.35;;;;;;;14.21;46.00;103180.31;5053486;28;20047;-64
2023/02/11 07:08:08;;;;;;;20.88;8.02;;;;;;;14.21;46.55;103187.56;5053636;28;20067;-62
2023/02/11 07:10:34;;;;;;;16.92;7.43;;;;;;;14.21;46.03;103182.16;5053692;28;20404;-63
2023/02/11 07:12:59;;;;;;;15.45;7.30;;;;;;;14.19;45.75;103187.63;5053432;28;20033;-63
2023/02/11 07:15:25;;;;;;;29.27;7.78;;;;;;;14.19;45.97;103194.84;5053911;28;20078;-63
2023/02/11 07:17:50;;;;;;;19.88;7.70;;;;;;;14.20;45.56;103200.16;5053394;28;20033;-62
2023/02/11 07:20:15;;;;;;;26.15;8.18;;;;;;;14.23;45.42;103202.69;5052928;28;20033;-62
2023/02/11 07:22:41;;;;;;;21.73;7.78;;;;;;;14.21;45.99;103199.19;5053609;28;20053;-64
2023/02/11 07:25:06;;;;;;;22.40;7.93;;;;;;;14.20;45.91;103194.78;5053389;28;20057;-65
2023/02/11 07:27:32;;;;;;;14.85;7.80;;;;;;;14.20;47.19;103197.47;5053681;28;20126;-63
2023/02/11 07:29:57;;;;;;;24.55;8.15;;;;;;;14.22;45.91;103202.75;5053235;28;20409;-63
2023/02/11 07:32:22;;;;;;;19.13;8.27;;;;;;;14.23;45.86;103215.28;5053459;28;20507;-63
2023/02/11 07:34:48;;;;;;;25.38;9.35;;;;;;;14.22;45.77;103217.09;5051953;28;20087;-63
2023/02/11 07:37:13;;;;;;;22.98;8.30;;;;;;;14.23;46.78;103220.69;5053372;28;20036;-63
2023/02/11 07:39:39;;;;;;;24.08;8.32;;;;;;;14.24;45.86;103217.88;5053220;28;20033;-63
2023/02/11 07:42:04;;;;;;;21.88;8.27;;;;;;;14.27;46.24;103217.69;5053552;28;20024;-63
2023/02/11 07:44:32;;;;;;;21.92;9.63;;;;;;;14.29;47.21;103226.53;5053184;28;20116;-63
2023/02/11 07:46:57;;;;;;;20.48;8.35;;;;;;;14.29;47.42;103225.69;5053136;28;20045;-62
2023/02/11 07:49:23;;;;;;;19.63;8.00;;;;;;;14.28;47.52;103219.44;5053525;28;20031;-62
2023/02/11 07:51:50;;;;;;;19.08;8.10;;;;;;;14.29;46.04;103220.31;5052064;28;20029;-64
2023/02/11 07:54:16;;;;;;;25.02;8.70;;;;;;;14.32;47.19;103226.38;5053537;28;20053;-63
2023/02/11 07:56:41;;;;;;;18.42;7.90;;;;;;;14.34;46.15;103224.47;5053226;28;20094;-63
2023/02/11 07:59:06;;;;;;;27.10;9.13;;;;;;;14.37;47.59;103227.00;5053015;28;20037;-63
2023/02/11 08:01:32;;;;;;;24.38;8.90;;;;;;;14.39;45.81;103233.16;5051647;28;20116;-63
2023/02/11 08:03:59;;;;;;;24.23;9.40;;;;;;;14.41;46.99;103230.34;5053030;28;20029;-65
2023/02/11 08:06:26;;;;;;;27.17;9.52;;;;;;;14.40;46.82;103229.50;5053248;28;20481;-68
2023/02/11 08:08:51;;;;;;;21.33;8.88;;;;;;;14.41;47.24;103238.44;5052835;28;20136;-68
2023/02/11 08:11:20;;;;;;;30.67;9.63;;;;;;;14.41;46.42;103252.78;5052906;28;20552;-66
2023/02/11 08:13:46;;;;;;;22.08;9.25;;;;;;;14.43;47.40;103250.00;5052950;28;20037;-66
2023/02/11 08:16:19;;;;;;;22.90;7.57;;;;;;;14.43;46.30;103247.31;5051668;28;20029;-65
2023/02/11 08:18:44;;;;;;;;;;;;;;;14.43;47.09;103255.41;5053186;28;20033;-67
2023/02/11 08:21:10;;;;;;;27.58;8.20;;;;;;;14.42;46.28;103254.53;5053096;28;19963;-65
2023/02/11 08:23:37;;;;;;;19.45;8.75;;;;;;;14.42;46.17;103265.31;5052798;28;20044;-64
2023/02/11 08:26:03;;;;;;;30.30;9.48;;;;;;;14.44;47.63;103266.09;5052838;28;20116;-64
2023/02/11 08:28:29;;;;;;;22.85;8.75;;;;;;;14.46;47.72;103274.94;5052566;28;20044;-64
2023/02/11 08:30:54;;;;;;;29.38;10.35;;;;;;;14.48;47.10;103274.88;5053331;28;20025;-64
2023/02/11 08:33:20;;;;;;;22.85;9.52;;;;;;;14.49;46.44;103277.44;5056980;28;20037;-65
2023/02/11 08:35:45;;;;;;;33.47;10.48;;;;;;;14.54;47.02;103277.19;5056742;28;20127;-64
2023/02/11 08:38:10;;;;;;;33.15;11.48;;;;;;;14.57;47.03;103274.31;5056651;28;20420;-64
2023/02/11 08:40:36;;;;;;;18.60;8.55;;;;;;;14.58;47.29;103271.50;5055047;28;20123;-65
2023/02/11 08:43:01;;;;;;;32.08;9.55;;;;;;;14.62;47.05;103271.31;5056564;28;20029;-64
2023/02/11 08:45:27;;;;;;;32.00;8.93;;;;;;;14.64;46.91;103269.38;5056662;28;20036;-64
2023/02/11 08:47:52;;;;;;;28.80;9.50;;;;;;;14.65;46.33;103273.81;5056032;28;20040;-64
2023/02/11 08:50:18;;;;;;;25.15;9.43;;;;;;;14.65;46.19;103277.38;5056078;28;20043;-66
2023/02/11 08:52:43;;;;;;;28.50;10.80;;;;;;;14.65;46.44;103276.50;5056179;28;20036;-65
2023/02/11 08:55:09;;;;;;;33.85;10.23;;;;;;;14.65;46.17;103281.91;5056101;28;20512;-63
2023/02/11 08:57:34;;;;;;;36.95;11.70;;;;;;;14.65;46.64;103281.91;5056150;28;20040;-66
2023/02/11 09:00:00;;;;;;;34.58;10.70;;;;;;;14.64;46.52;103282.88;5055526;28;20500;-64
2023/02/11 09:02:25;;;;;;;26.42;10.50;;;;;;;14.67;46.52;103285.38;5054911;28;20033;-64
2023/02/11 09:04:50;;;;;;;30.63;10.13;;;;;;;14.68;47.57;103284.41;5054872;28;20082;-65
2023/02/11 09:07:16;;;;;;;22.60;9.38;;;;;;;14.70;47.02;103287.88;5056046;28;20167;-64
2023/02/11 09:09:41;;;;;;;30.13;10.70;;;;;;;14.71;47.98;103286.94;5056238;28;20480;-64
2023/02/11 09:12:06;;;;;;;31.00;9.80;;;;;;;14.71;47.12;103289.63;5054969;28;20511;-64
2023/02/11 09:14:32;;;;;;;35.97;11.25;;;;;;;14.71;47.77;103292.31;5055937;28;20087;-63
2023/02/11 09:16:57;;;;;;;27.98;10.98;;;;;;;14.71;47.29;103281.53;5055644;28;20567;-64
2023/02/11 09:19:23;;;;;;;23.70;11.07;;;;;;;14.73;47.29;103293.97;5054510;28;20025;-63
2023/02/11 09:21:48;;;;;;;30.05;11.07;;;;;;;14.75;47.27;103304.66;5055554;28;20029;-64
2023/02/11 09:24:14;;;;;;;22.35;10.40;;;;;;;14.79;46.87;103298.09;5056311;28;20031;-64
2023/02/11 09:26:41;;;;;;;31.85;11.70;;;;;;;14.78;47.92;103299.94;5055515;28;20044;-64
2023/02/11 09:29:06;;;;;;;28.05;10.25;;;;;;;14.79;47.97;103306.19;5055366;28;20394;-64
2023/02/11 09:31:32;;;;;;;31.60;10.95;;;;;;;14.81;47.02;103302.44;5055690;28;20100;-64
2023/02/11 09:34:03;;;;;;;32.97;12.18;;;;;;;14.84;46.73;103293.28;5047604;28;20064;-65
2023/02/11 09:36:37;;;;;;;31.60;11.05;;;;;;;14.88;47.98;103300.25;5036002;28;20029;-66
2023/02/11 09:39:04;;;;;;;25.42;11.15;;;;;;;14.87;46.90;103295.78;5035658;28;20042;-64
2023/02/11 09:41:56;;;;;;;37.70;12.60;;;;;;;14.89;47.82;103301.94;5035567;28;20091;-65
2023/02/11 09:44:27;;;;;;;28.80;11.70;;;;;;;14.89;47.27;103297.44;5004082;28;20053;-65
2023/02/11 09:47:22;;;;;;;31.95;11.25;;;;;;;14.89;46.77;103299.25;5035423;28;20041;-64
2023/02/11 09:49:50;;;;;;;24.73;10.63;;;;;;;14.90;47.14;103301.00;5028478;28;20120;-64
2023/02/11 09:52:34;;;;;;;34.05;11.60;;;;;;;14.93;48.05;103306.22;5035007;28;20445;-64
2023/02/11 09:55:01;;;;;;;33.75;12.02;;;;;;;14.95;46.81;103320.47;5034737;28;20033;-64
2023/02/11 09:57:34;;;;;;;30.00;12.23;;;;;;;14.96;47.08;103324.91;5035615;28;20132;-65
2023/02/11 10:00:19;;;;;;;;;;;;;;;14.97;46.69;103329.31;5035393;28;20041;-65
2023/02/11 10:03:03;;;;;;;34.35;11.32;;;;;;;15.01;47.30;103329.06;5034980;28;19921;-64
2023/02/11 10:05:35;;;;;;;29.02;11.02;;;;;;;15.05;47.79;103335.09;5034890;28;20168;-64
2023/02/11 10:08:22;;;;;;;29.48;11.07;;;;;;;15.04;47.79;103336.97;5034842;28;20095;-64
2023/02/11 10:10:52;;;;;;;32.47;10.63;;;;;;;15.05;46.71;103335.97;5034785;28;20036;-64
2023/02/11 10:13:30;;;;;;;31.75;12.77;;;;;;;15.06;48.11;103342.25;5035022;28;20045;-64
2023/02/11 10:16:08;;;;;;;38.70;12.45;;;;;;;15.09;47.73;103339.34;5034661;28;20033;-64
2023/02/11 10:19:04;;;;;;;33.33;12.35;;;;;;;15.11;46.90;103343.69;5033504;28;20021;-65
2023/02/11 10:22:11;;;;;;;30.17;10.85;;;;;;;15.14;47.40;103348.03;5034272;28;20400;-64
2023/02/11 10:24:37;;;;;;;33.42;12.32;;;;;;;15.16;46.41;103346.97;5033495;28;20037;-64
2023/02/11 10:27:16;;;;;;;43.28;13.43;;;;;;;15.19;46.55;103348.59;5034896;28;20102;-66
2023/02/11 10:29:55;;;;;;;29.67;11.38;;;;;;;15.23;46.80;103349.28;5033287;28;20489;-64
2023/02/11 10:32:43;;;;;;;35.60;13.40;;;;;;;15.23;47.88;103352.84;5033170;28;20064;-64
2023/02/11 10:35:17;;;;;;;43.15;12.93;;;;;;;15.22;48.22;103358.34;5034339;28;20048;-65
2023/02/11 10:37:44;;;;;;;35.33;12.80;;;;;;;15.21;47.22;103356.63;5034417;28;20033;-65
2023/02/11 10:40:24;;;;;;;33.13;13.30;;;;;;;15.22;47.48;103359.22;5034158;28;20527;-65
2023/02/11 10:42:52;;;;;;;30.58;13.10;;;;;;;15.24;48.06;103356.44;5034470;28;20029;-64
2023/02/11 10:45:37;;;;;;;30.33;11.38;;;;;;;15.28;47.35;103357.94;5034929;28;20040;-65
2023/02/11 10:48:05;;;;;;;25.83;10.60;;;;;;;15.29;47.64;103344.38;5034539;28;20060;-64
2023/02/11 10:50:33;;;;;;;31.13;12.52;;;;;;;15.31;47.05;103350.53;5032623;28;20037;-64
2023/02/11 10:53:16;;;;;;;30.15;12.25;;;;;;;15.32;47.46;103354.97;5034079;28;20036;-64
2023/02/11 10:55:53;;;;;;;27.73;12.18;;;;;;;15.32;47.24;103360.38;5032978;28;20033;-64
2023/02/11 10:58:30;;;;;;;37.10;13.45;;;;;;;15.36;48.02;103355.63;5033939;28;20029;-64
2023/02/11 11:00:58;;;;;;;27.60;11.70;;;;;;;15.37;47.06;103357.38;5033163;28;20029;-64
2023/02/11 11:03:25;;;;;;;34.05;13.23;;;;;;;15.40;46.76;103351.78;5033433;28;20021;-64
2023/02/11 11:05:54;;;;;;;30.65;12.20;;;;;;;15.43;46.44;103352.47;5032740;28;20044;-64
2023/02/11 11:08:19;;;;;;;29.25;12.70;;;;;;;15.43;47.02;103340.78;5034005;28;20121;-64
2023/02/11 11:11:02;;;;;;;35.83;13.00;;;;;;;15.50;48.11;103343.00;5033973;28;20057;-64
2023/02/11 11:13:33;;;;;;;36.20;12.93;;;;;;;15.55;48.11;103346.28;5034036;28;20137;-64
2023/02/11 11:16:25;;;;;;;39.40;13.60;;;;;;;15.57;46.77;103351.59;5033276;28;20037;-64
2023/02/11 11:19:07;;;;;;;37.53;13.82;;;;;;;15.55;47.84;103346.28;5030692;28;20489;-65
2023/02/11 11:21:40;;;;;;;41.25;13.10;;;;;;;15.53;46.97;103342.81;5034272;28;20031;-64
2023/02/11 11:24:24;;;;;;;38.25;13.50;;;;;;;15.54;47.97;103352.66;5032833;28;20030;-64
2023/02/11 11:26:53;;;;;;;34.63;12.02;;;;;;;15.56;47.35;103352.56;5033322;28;20091;-64